createdAt,value
2019-03-01T00:01:28.102Z,30.02
2019-03-01T00:02:53.745Z,30.50
2019-03-01T00:04:49.240Z,31.35
2019-03-01T00:06:21.474Z,27.00
2019-03-01T00:08:20.930Z,32.70
2019-03-01T00:09:56.805Z,27.02
2019-03-01T00:11:47.283Z,31.37
2019-03-01T00:13:45.122Z,32.80
2019-03-01T00:15:21.818Z,35.73
2019-03-01T00:17:20.811Z,42.25
2019-03-01T00:19:31.360Z,37.00
2019-03-01T00:21:33.549Z,31.77
2019-03-01T00:23:34.108Z,34.20
2019-03-01T00:25:47.660Z,34.40
2019-03-01T00:27:51.118Z,38.30
2019-03-01T00:29:48.465Z,28.62
2019-03-01T00:31:38.110Z,33.18
2019-03-01T00:33:31.526Z,39.05
2019-03-01T00:35:25.888Z,40.20
2019-03-01T00:37:07.036Z,28.92
2019-03-01T00:39:05.046Z,35.23
2019-03-01T00:41:22.907Z,39.73
2019-03-01T00:43:44.522Z,34.50
2019-03-01T00:45:10.281Z,42.35
2019-03-01T00:46:35.790Z,36.05
2019-03-01T00:48:01.297Z,44.83
2019-03-01T00:49:26.845Z,37.28
2019-03-01T00:50:52.387Z,44.33
2019-03-01T00:52:17.984Z,37.45
2019-03-01T00:53:43.469Z,37.33
2019-03-01T00:55:09.219Z,36.05
2019-03-01T00:56:34.721Z,35.50
2019-03-01T00:58:00.269Z,33.95
2019-03-01T00:59:25.818Z,37.35
2019-03-01T01:00:51.500Z,32.38
2019-03-01T01:02:17.059Z,35.63
2019-03-01T01:03:42.551Z,47.62
2019-03-01T01:05:08.262Z,36.45
2019-03-01T01:06:33.771Z,44.88
2019-03-01T01:07:59.286Z,32.42
2019-03-01T01:09:24.921Z,33.00
2019-03-01T01:10:50.458Z,39.03
2019-03-01T01:12:15.966Z,34.15
2019-03-01T01:13:41.639Z,42.70
2019-03-01T01:15:07.509Z,34.70
2019-03-01T01:16:33.128Z,32.63
2019-03-01T01:17:58.600Z,34.80
2019-03-01T01:19:24.259Z,35.83
2019-03-01T01:20:49.804Z,34.50
2019-03-01T01:22:15.296Z,40.30
2019-03-01T01:23:40.854Z,34.63
2019-03-01T01:25:06.700Z,37.40
2019-03-01T01:26:32.362Z,39.67
2019-03-01T01:27:57.894Z,32.42
2019-03-01T01:29:23.505Z,35.45
2019-03-01T01:30:49.019Z,39.15
2019-03-01T01:32:14.596Z,34.80
2019-03-01T01:33:40.134Z,44.58
2019-03-01T01:35:06.022Z,34.70
2019-03-01T01:36:31.547Z,35.08
2019-03-01T01:37:57.058Z,35.43
2019-03-01T01:39:23.163Z,42.85
2019-03-01T01:40:48.802Z,41.42
2019-03-01T01:42:14.337Z,45.10
2019-03-01T01:43:39.844Z,41.92
2019-03-01T01:45:06.106Z,44.27
2019-03-01T01:46:31.612Z,46.45
2019-03-01T01:47:57.141Z,42.73
2019-03-01T01:49:22.630Z,43.63
2019-03-01T01:50:48.174Z,46.65
2019-03-01T01:52:13.781Z,51.70
2019-03-01T01:53:39.378Z,52.20
2019-03-01T01:55:05.330Z,48.60
2019-03-01T01:56:30.873Z,51.35
2019-03-01T01:57:56.344Z,45.12
2019-03-01T01:59:21.875Z,49.27
2019-03-01T02:00:47.396Z,51.00
2019-03-01T02:02:13.107Z,52.08
2019-03-01T02:03:38.826Z,51.80
2019-03-01T02:05:04.562Z,40.25
2019-03-01T02:06:30.206Z,42.60
2019-03-01T02:07:55.690Z,31.55
2019-03-01T02:09:28.051Z,30.37
2019-03-01T02:10:53.836Z,31.17
2019-03-01T02:12:19.495Z,28.25
2019-03-01T02:13:45.090Z,27.55
2019-03-01T02:15:12.677Z,24.77
2019-03-01T02:16:38.305Z,19.65
2019-03-01T02:18:03.962Z,24.12
2019-03-01T02:19:29.457Z,21.07
2019-03-01T02:20:55.082Z,24.95
2019-03-01T02:22:20.645Z,20.23
2019-03-01T02:23:46.112Z,24.52
2019-03-01T02:25:12.190Z,31.93
2019-03-01T02:26:37.812Z,24.52
2019-03-01T02:28:03.455Z,23.87
2019-03-01T02:29:28.965Z,22.90
2019-03-01T02:30:55.052Z,22.25
2019-03-01T02:32:26.058Z,20.72
2019-03-01T02:33:51.604Z,17.50
2019-03-01T02:35:27.535Z,18.10
2019-03-01T02:36:53.085Z,17.25
2019-03-01T02:38:18.619Z,21.93
2019-03-01T02:39:44.129Z,20.97
2019-03-01T02:41:09.635Z,23.52
2019-03-01T02:42:35.150Z,22.80
2019-03-01T02:44:00.637Z,21.07
2019-03-01T02:45:26.142Z,23.40
2019-03-01T02:46:51.735Z,31.27
2019-03-01T02:48:17.251Z,36.83
2019-03-01T02:49:42.767Z,34.67
2019-03-01T02:51:08.272Z,26.00
2019-03-01T02:52:33.943Z,24.07
2019-03-01T02:53:59.447Z,26.50
2019-03-01T02:55:25.788Z,25.50
2019-03-01T02:56:51.265Z,29.65
2019-03-01T02:58:16.824Z,30.30
2019-03-01T02:59:42.278Z,35.68
2019-03-01T03:01:07.913Z,32.10
2019-03-01T03:02:33.590Z,33.48
2019-03-01T03:03:59.066Z,37.30
2019-03-01T03:05:24.578Z,27.42
2019-03-01T03:06:57.951Z,38.20
2019-03-01T03:08:23.485Z,35.45
2019-03-01T03:09:48.979Z,30.35
2019-03-01T03:11:14.499Z,31.73
2019-03-01T03:12:40.002Z,41.70
2019-03-01T03:14:05.533Z,35.35
2019-03-01T03:15:33.691Z,28.38
2019-03-01T03:16:59.151Z,40.52
2019-03-01T03:18:24.650Z,35.13
2019-03-01T03:19:50.139Z,34.48
2019-03-01T03:21:15.743Z,34.45
2019-03-01T03:22:41.542Z,35.50
2019-03-01T03:24:07.309Z,30.68
2019-03-01T03:25:32.907Z,30.20
2019-03-01T03:26:58.435Z,30.82
2019-03-01T03:28:23.961Z,30.08
2019-03-01T03:29:49.477Z,35.40
2019-03-01T03:31:15.007Z,33.45
2019-03-01T03:32:40.589Z,29.37
2019-03-01T03:34:06.195Z,35.55
2019-03-01T03:35:31.681Z,29.80
2019-03-01T03:36:57.171Z,29.95
2019-03-01T03:38:22.695Z,32.25
2019-03-01T03:39:48.240Z,30.88
2019-03-01T03:41:14.441Z,32.05
2019-03-01T03:42:40.233Z,25.80
2019-03-01T03:44:05.872Z,27.62
2019-03-01T03:45:31.375Z,28.87
2019-03-01T03:46:56.837Z,36.38
2019-03-01T03:48:22.345Z,30.80
2019-03-01T03:49:47.879Z,24.82
2019-03-01T03:51:13.468Z,23.85
2019-03-01T03:52:38.948Z,24.65
2019-03-01T03:54:04.579Z,23.80
2019-03-01T03:55:30.409Z,28.50
2019-03-01T03:56:55.914Z,22.27
2019-03-01T03:58:21.511Z,23.77
2019-03-01T03:59:47.287Z,22.32
2019-03-01T04:01:12.980Z,25.95
2019-03-01T04:02:38.558Z,27.27
2019-03-01T04:04:04.353Z,25.72
2019-03-01T04:05:29.878Z,24.23
2019-03-01T04:06:55.489Z,30.10
2019-03-01T04:08:21.000Z,25.72
2019-03-01T04:09:46.750Z,24.50
2019-03-01T04:11:12.309Z,21.02
2019-03-01T04:12:37.824Z,27.87
2019-03-01T04:14:03.329Z,33.53
2019-03-01T04:15:28.874Z,22.32
2019-03-01T04:16:54.458Z,27.55
2019-03-01T04:18:19.974Z,28.27
2019-03-01T04:19:45.472Z,24.52
2019-03-01T04:21:11.078Z,21.82
2019-03-01T04:22:36.683Z,27.48
2019-03-01T04:24:02.209Z,24.63
2019-03-01T04:25:27.854Z,25.10
2019-03-01T04:26:53.471Z,27.10
2019-03-01T04:28:18.995Z,32.67
2019-03-01T04:29:44.544Z,29.80
2019-03-01T04:31:10.053Z,23.98
2019-03-01T04:32:35.686Z,26.55
2019-03-01T04:34:01.209Z,22.02
2019-03-01T04:35:26.846Z,19.73
2019-03-01T04:36:52.347Z,22.85
2019-03-01T04:38:17.850Z,28.00
2019-03-01T04:39:43.415Z,20.85
2019-03-01T04:41:09.014Z,24.70
2019-03-01T04:42:34.481Z,23.73
2019-03-01T04:44:00.014Z,19.10
2019-03-01T04:45:25.496Z,19.70
2019-03-01T04:46:50.983Z,27.73
2019-03-01T04:48:16.684Z,21.55
2019-03-01T04:49:42.166Z,20.85
2019-03-01T04:51:07.824Z,22.98
2019-03-01T04:52:35.606Z,18.70
2019-03-01T04:54:01.238Z,19.45
2019-03-01T04:55:27.943Z,21.60
2019-03-01T04:56:53.433Z,16.70
2019-03-01T04:58:18.994Z,22.07
2019-03-01T04:59:44.479Z,23.12
2019-03-01T05:01:10.090Z,19.60
2019-03-01T05:02:35.591Z,22.62
2019-03-01T05:04:01.217Z,16.77
2019-03-01T05:05:26.883Z,19.07
2019-03-01T05:06:52.572Z,17.30
2019-03-01T05:08:18.149Z,22.02
2019-03-01T05:09:43.651Z,17.90
2019-03-01T05:11:09.214Z,19.82
2019-03-01T05:12:34.656Z,15.48
2019-03-01T05:14:00.182Z,23.12
2019-03-01T05:15:25.806Z,21.23
2019-03-01T05:16:51.439Z,23.22
2019-03-01T05:18:17.020Z,21.50
2019-03-01T05:19:42.577Z,21.07
2019-03-01T05:21:08.100Z,17.35
2019-03-01T05:22:33.598Z,24.55
2019-03-01T05:23:59.119Z,20.37
2019-03-01T05:25:24.598Z,17.02
2019-03-01T05:26:50.163Z,21.73
2019-03-01T05:28:15.700Z,19.32
2019-03-01T05:29:41.167Z,18.35
2019-03-01T05:31:06.838Z,19.80
2019-03-01T05:32:32.611Z,20.40
2019-03-01T05:33:58.761Z,18.32
2019-03-01T05:35:24.777Z,28.12
2019-03-01T05:36:50.495Z,23.62
2019-03-01T05:38:21.666Z,24.85
2019-03-01T05:39:43.129Z,26.45
2019-03-01T05:41:08.724Z,19.42
2019-03-01T05:42:34.261Z,24.50
2019-03-01T05:44:00.065Z,22.82
2019-03-01T05:45:25.741Z,23.67
2019-03-01T05:46:51.392Z,26.42
2019-03-01T05:48:18.335Z,24.37
2019-03-01T05:49:44.258Z,27.05
2019-03-01T05:51:10.091Z,25.37
2019-03-01T05:52:36.151Z,28.12
2019-03-01T05:54:05.053Z,29.85
2019-03-01T05:55:30.991Z,26.77
2019-03-01T05:56:56.916Z,37.65
2019-03-01T05:58:30.807Z,32.13
2019-03-01T05:59:57.061Z,42.13
2019-03-01T06:01:43.435Z,38.78
2019-03-01T06:04:00.010Z,30.57
2019-03-01T06:05:37.118Z,34.45
2019-03-01T06:07:51.718Z,29.20
2019-03-01T06:09:48.781Z,31.75
2019-03-01T06:11:24.109Z,36.73
2019-03-01T06:13:20.925Z,31.70
2019-03-01T06:15:37.875Z,45.05
2019-03-01T06:17:44.115Z,40.08
2019-03-01T06:19:36.502Z,41.18
2019-03-01T06:21:24.694Z,41.23
2019-03-01T06:23:14.224Z,43.00
2019-03-01T06:25:20.172Z,44.95
2019-03-01T06:27:04.289Z,36.20
2019-03-01T06:28:47.072Z,50.28
2019-03-01T06:30:24.983Z,40.20
2019-03-01T06:32:42.191Z,43.33
2019-03-01T06:34:41.062Z,46.25
2019-03-01T06:36:16.494Z,58.55
2019-03-01T06:38:29.838Z,43.10
2019-03-01T06:40:51.284Z,49.60
2019-03-01T06:42:58.526Z,57.58
2019-03-01T06:45:03.269Z,50.43
2019-03-01T06:47:02.610Z,46.15
2019-03-01T06:48:37.475Z,50.28
2019-03-01T06:50:22.852Z,63.58
2019-03-01T06:51:48.359Z,51.15
2019-03-01T06:53:13.886Z,52.50
2019-03-01T06:54:39.415Z,54.53
2019-03-01T06:56:06.931Z,48.60
2019-03-01T06:57:32.481Z,60.55
2019-03-01T06:59:00.305Z,62.80
2019-03-01T07:00:26.202Z,61.00
2019-03-01T07:01:51.710Z,56.48
2019-03-01T07:03:17.312Z,53.80
2019-03-01T07:04:42.867Z,51.30
2019-03-01T07:06:08.327Z,56.40
2019-03-01T07:07:33.845Z,49.53
2019-03-01T07:08:59.411Z,69.77
2019-03-01T07:10:25.294Z,55.28
2019-03-01T07:11:50.860Z,56.08
2019-03-01T07:13:17.306Z,58.55
2019-03-01T07:14:46.807Z,49.05
2019-03-01T07:16:12.391Z,54.48
2019-03-01T07:17:37.895Z,57.45
2019-03-01T07:19:03.549Z,48.58
2019-03-01T07:20:29.183Z,55.83
2019-03-01T07:21:56.114Z,54.85
2019-03-01T07:23:25.389Z,53.45
2019-03-01T07:24:54.471Z,53.35
2019-03-01T07:26:29.034Z,47.48
2019-03-01T07:27:55.366Z,49.30
2019-03-01T07:29:20.922Z,48.75
2019-03-01T07:30:46.448Z,45.90
2019-03-01T07:32:12.441Z,45.00
2019-03-01T07:33:37.937Z,47.65
2019-03-01T07:35:03.932Z,59.27
2019-03-01T07:36:29.526Z,46.30
2019-03-01T07:37:55.054Z,45.45
2019-03-01T07:39:20.558Z,47.17
2019-03-01T07:40:46.158Z,44.67
2019-03-01T07:42:11.635Z,50.20
2019-03-01T07:43:37.148Z,47.65
2019-03-01T07:45:02.696Z,50.28
2019-03-01T07:46:28.574Z,52.95
2019-03-01T07:47:54.136Z,56.85
2019-03-01T07:49:19.658Z,53.92
2019-03-01T07:50:45.346Z,50.35
2019-03-01T07:52:10.891Z,48.30
2019-03-01T07:53:40.999Z,50.52
2019-03-01T07:55:03.587Z,49.48
2019-03-01T07:56:29.470Z,50.23
2019-03-01T07:57:55.211Z,52.75
2019-03-01T07:59:20.872Z,55.45
2019-03-01T08:00:47.254Z,62.33
2019-03-01T08:02:13.637Z,45.52
2019-03-01T08:03:39.142Z,52.88
2019-03-01T08:05:05.160Z,51.88
2019-03-01T08:06:30.696Z,52.95
2019-03-01T08:07:59.708Z,46.68
2019-03-01T08:09:23.484Z,51.13
2019-03-01T08:10:49.050Z,52.10
2019-03-01T08:12:14.550Z,53.90
2019-03-01T08:13:40.158Z,51.58
2019-03-01T08:15:08.439Z,52.55
2019-03-01T08:16:34.169Z,57.33
2019-03-01T08:18:00.541Z,54.50
2019-03-01T08:19:26.337Z,55.75
2019-03-01T08:20:53.014Z,74.77
2019-03-01T08:22:20.836Z,58.68
2019-03-01T08:23:45.696Z,56.18
2019-03-01T08:25:12.015Z,62.17
2019-03-01T08:26:37.582Z,58.75
2019-03-01T08:28:03.033Z,62.70
2019-03-01T08:29:30.681Z,62.10
2019-03-01T08:30:55.702Z,68.60
2019-03-01T08:32:21.291Z,59.45
2019-03-01T08:33:46.761Z,64.65
2019-03-01T08:35:13.457Z,67.08
2019-03-01T08:36:42.443Z,72.10
2019-03-01T08:38:06.220Z,82.82
2019-03-01T08:39:31.727Z,65.50
2019-03-01T08:40:57.305Z,66.80
2019-03-01T08:42:22.867Z,79.62
2019-03-01T08:43:48.918Z,78.60
2019-03-01T08:45:16.213Z,75.80
2019-03-01T08:46:42.072Z,80.77
2019-03-01T08:48:08.914Z,65.72
2019-03-01T08:49:34.438Z,71.05
2019-03-01T08:51:00.071Z,57.53
2019-03-01T08:52:25.618Z,74.15
2019-03-01T08:53:51.741Z,68.12
2019-03-01T08:55:18.215Z,61.88
2019-03-01T08:56:46.483Z,56.55
2019-03-01T08:58:10.848Z,62.73
2019-03-01T08:59:36.327Z,60.08
2019-03-01T09:01:04.071Z,62.85
2019-03-01T09:02:29.454Z,67.03
2019-03-01T09:03:58.678Z,64.60
2019-03-01T09:05:24.141Z,66.60
2019-03-01T09:06:49.969Z,56.98
2019-03-01T09:08:15.490Z,58.65
2019-03-01T09:09:40.995Z,56.50
2019-03-01T09:11:09.201Z,55.45
2019-03-01T09:12:33.775Z,49.80
2019-03-01T09:13:59.282Z,53.52
2019-03-01T09:15:24.853Z,51.95
2019-03-01T09:16:50.449Z,50.80
2019-03-01T09:18:15.970Z,53.58
2019-03-01T09:19:41.497Z,47.78
2019-03-01T09:21:12.546Z,47.98
2019-03-01T09:22:35.169Z,51.37
2019-03-01T09:24:00.803Z,52.58
2019-03-01T09:25:26.358Z,67.95
2019-03-01T09:26:55.213Z,68.85
2019-03-01T09:28:19.028Z,72.58
2019-03-01T09:29:44.598Z,66.57
2019-03-01T09:31:10.106Z,65.90
2019-03-01T09:32:35.643Z,63.17
2019-03-01T09:34:01.107Z,62.80
2019-03-01T09:35:35.493Z,65.90
2019-03-01T09:37:01.034Z,67.27
2019-03-01T09:38:26.723Z,65.62
2019-03-01T09:39:53.580Z,72.22
2019-03-01T09:41:19.338Z,66.42
2019-03-01T09:42:47.411Z,78.80
2019-03-01T09:44:12.213Z,85.77
2019-03-01T09:45:37.723Z,54.77
2019-03-01T09:47:03.226Z,58.83
2019-03-01T09:48:28.864Z,64.05
2019-03-01T09:49:56.666Z,65.85
2019-03-01T09:51:21.617Z,59.15
2019-03-01T09:52:47.191Z,59.13
2019-03-01T09:54:12.764Z,49.27
2019-03-01T09:55:38.595Z,49.65
2019-03-01T09:57:04.285Z,48.10
2019-03-01T09:58:29.931Z,55.23
2019-03-01T09:59:55.405Z,42.67
2019-03-01T10:01:21.402Z,47.23
2019-03-01T10:02:47.056Z,46.60
2019-03-01T10:04:12.550Z,48.63
2019-03-01T10:05:38.117Z,41.07
2019-03-01T10:07:03.610Z,49.07
2019-03-01T10:08:29.221Z,45.00
2019-03-01T10:09:54.798Z,42.35
2019-03-01T10:11:20.326Z,52.47
2019-03-01T10:12:45.827Z,41.27
2019-03-01T10:14:11.486Z,44.23
2019-03-01T10:15:37.193Z,46.33
2019-03-01T10:17:02.699Z,41.80
2019-03-01T10:18:28.209Z,47.17
2019-03-01T10:19:53.737Z,42.90
2019-03-01T10:21:19.672Z,42.65
2019-03-01T10:22:45.314Z,48.45
2019-03-01T10:24:10.889Z,44.38
2019-03-01T10:25:36.380Z,48.33
2019-03-01T10:27:03.059Z,41.33
2019-03-01T10:28:28.834Z,48.75
2019-03-01T10:29:54.369Z,46.80
2019-03-01T10:31:19.862Z,45.83
2019-03-01T10:32:45.466Z,43.08
2019-03-01T10:34:11.112Z,48.78
2019-03-01T10:35:36.788Z,43.70
2019-03-01T10:37:02.321Z,43.65
2019-03-01T10:38:27.839Z,45.17
2019-03-01T10:39:55.588Z,41.53
2019-03-01T10:41:20.517Z,50.03
2019-03-01T10:42:46.239Z,49.33
2019-03-01T10:44:11.895Z,41.40
2019-03-01T10:45:37.718Z,46.83
2019-03-01T10:47:03.270Z,41.90
2019-03-01T10:48:28.750Z,38.33
2019-03-01T10:49:54.332Z,44.03
2019-03-01T10:51:19.894Z,44.18
2019-03-01T10:52:45.468Z,39.85
2019-03-01T10:54:11.155Z,46.05
2019-03-01T10:55:36.777Z,47.85
2019-03-01T10:57:02.393Z,40.80
2019-03-01T10:58:28.006Z,42.93
2019-03-01T10:59:53.565Z,46.15
2019-03-01T11:01:19.084Z,37.70
2019-03-01T11:02:44.801Z,34.78
2019-03-01T11:04:10.395Z,37.75
2019-03-01T11:05:35.948Z,36.20
2019-03-01T11:07:01.586Z,35.20
2019-03-01T11:08:27.192Z,42.85
2019-03-01T11:09:52.778Z,34.65
2019-03-01T11:11:18.357Z,40.70
2019-03-01T11:12:43.954Z,46.85
2019-03-01T11:14:09.469Z,38.98
2019-03-01T11:15:35.182Z,41.53
2019-03-01T11:17:00.677Z,41.93
2019-03-01T11:18:26.215Z,38.98
2019-03-01T11:19:51.772Z,38.53
2019-03-01T11:21:17.294Z,39.33
2019-03-01T11:22:43.168Z,39.27
2019-03-01T11:24:08.758Z,40.80
2019-03-01T11:25:34.409Z,42.17
2019-03-01T11:27:00.017Z,50.33
2019-03-01T11:28:25.513Z,44.63
2019-03-01T11:29:51.081Z,51.50
2019-03-01T11:31:16.591Z,43.27
2019-03-01T11:32:42.085Z,44.07
2019-03-01T11:34:07.747Z,39.30
2019-03-01T11:35:33.472Z,33.80
2019-03-01T11:36:59.000Z,36.97
2019-03-01T11:38:24.499Z,37.90
2019-03-01T11:39:50.092Z,36.63
2019-03-01T11:41:15.833Z,37.97
2019-03-01T11:42:41.367Z,32.43
2019-03-01T11:44:06.885Z,31.63
2019-03-01T11:45:32.528Z,31.60
2019-03-01T11:46:58.033Z,40.17
2019-03-01T11:48:23.547Z,28.20
2019-03-01T11:49:49.046Z,24.13
2019-03-01T11:51:14.681Z,25.57
2019-03-01T11:52:40.299Z,16.83
2019-03-01T11:54:06.226Z,37.45
2019-03-01T11:55:31.894Z,24.98
2019-03-01T11:56:57.383Z,22.55
2019-03-01T11:58:23.038Z,20.50
2019-03-01T11:59:48.566Z,19.90
2019-03-01T12:01:17.133Z,16.83
2019-03-01T12:02:41.287Z,17.30
2019-03-01T12:04:06.823Z,26.25
2019-03-01T12:05:32.535Z,19.98
2019-03-01T12:06:58.059Z,23.77
2019-03-01T12:08:23.766Z,24.87
2019-03-01T12:09:49.265Z,26.93
2019-03-01T12:11:14.814Z,28.40
2019-03-01T12:12:40.277Z,17.90
2019-03-01T12:14:05.922Z,20.17
2019-03-01T12:15:31.542Z,24.15
2019-03-01T12:16:57.053Z,24.30
2019-03-01T12:18:22.584Z,23.90
2019-03-01T12:19:48.225Z,22.50
2019-03-01T12:21:16.913Z,30.15
2019-03-01T12:22:42.875Z,22.70
2019-03-01T12:24:08.828Z,19.53
2019-03-01T12:25:34.810Z,19.10
2019-03-01T12:27:00.437Z,20.23
2019-03-01T12:28:26.042Z,18.90
2019-03-01T12:29:53.814Z,23.10
2019-03-01T12:31:19.421Z,26.13
2019-03-01T12:32:45.024Z,19.90
2019-03-01T12:34:10.851Z,20.75
2019-03-01T12:35:36.510Z,26.07
2019-03-01T12:37:02.126Z,17.27
2019-03-01T12:38:27.643Z,21.50
2019-03-01T12:39:53.186Z,21.35
2019-03-01T12:41:18.713Z,21.00
2019-03-01T12:42:44.453Z,23.75
2019-03-01T12:44:09.975Z,24.63
2019-03-01T12:45:35.613Z,34.05
2019-03-01T12:47:01.153Z,41.53
2019-03-01T12:48:29.526Z,38.73
2019-03-01T12:49:55.071Z,38.20
2019-03-01T12:51:20.628Z,25.45
2019-03-01T12:52:46.287Z,25.25
2019-03-01T12:54:11.818Z,20.68
2019-03-01T12:55:37.392Z,20.57
2019-03-01T12:57:02.941Z,20.97
2019-03-01T12:58:28.453Z,24.80
2019-03-01T12:59:54.022Z,28.10
2019-03-01T13:01:19.516Z,24.10
2019-03-01T13:02:45.287Z,19.33
2019-03-01T13:04:10.890Z,17.43
2019-03-01T13:05:36.550Z,26.10
2019-03-01T13:07:02.073Z,22.50
2019-03-01T13:08:27.827Z,23.80
2019-03-01T13:09:53.414Z,26.80
2019-03-01T13:11:18.954Z,23.80
2019-03-01T13:12:44.601Z,20.70
2019-03-01T13:14:10.695Z,18.93
2019-03-01T13:15:36.454Z,23.67
2019-03-01T13:17:02.638Z,25.90
2019-03-01T13:18:28.216Z,24.07
2019-03-01T13:19:53.734Z,20.90
2019-03-01T13:21:19.279Z,23.90
2019-03-01T13:22:44.909Z,25.62
2019-03-01T13:24:12.614Z,22.62
2019-03-01T13:25:37.694Z,23.67
2019-03-01T13:27:03.210Z,31.12
2019-03-01T13:28:28.851Z,25.60
2019-03-01T13:29:55.277Z,21.30
2019-03-01T13:31:21.490Z,27.10
2019-03-01T13:32:46.978Z,18.45
2019-03-01T13:34:13.765Z,30.25
2019-03-01T13:35:39.675Z,25.32
2019-03-01T13:37:05.193Z,27.97
2019-03-01T13:38:33.920Z,20.47
2019-03-01T13:40:00.414Z,31.30
2019-03-01T13:41:26.039Z,24.93
2019-03-01T13:42:52.097Z,21.60
2019-03-01T13:44:17.826Z,20.57
2019-03-01T13:45:43.382Z,26.70
2019-03-01T13:47:09.466Z,23.33
2019-03-01T13:48:35.050Z,18.90
2019-03-01T13:50:05.705Z,25.00
2019-03-01T13:51:27.674Z,18.57
2019-03-01T13:52:53.436Z,21.70
2019-03-01T13:54:18.999Z,19.87
2019-03-01T13:55:44.532Z,23.37
2019-03-01T13:57:11.423Z,15.73
2019-03-01T13:58:37.291Z,31.87
2019-03-01T14:00:02.842Z,24.23
2019-03-01T14:01:28.464Z,17.80
2019-03-01T14:02:53.979Z,21.83
2019-03-01T14:04:19.477Z,23.32
2019-03-01T14:05:45.231Z,20.30
2019-03-01T14:07:10.953Z,19.77
2019-03-01T14:08:37.500Z,25.50
2019-03-01T14:10:04.753Z,18.50
2019-03-01T14:11:30.403Z,23.03
2019-03-01T14:12:55.977Z,21.50
2019-03-01T14:14:26.555Z,21.17
2019-03-01T14:15:50.444Z,23.03
2019-03-01T14:17:16.171Z,20.40
2019-03-01T14:18:41.727Z,20.50
2019-03-01T14:20:08.928Z,22.80
2019-03-01T14:21:34.463Z,24.53
2019-03-01T14:23:00.038Z,26.65
2019-03-01T14:24:25.990Z,31.80
2019-03-01T14:25:54.562Z,26.03
2019-03-01T14:27:20.348Z,23.63
2019-03-01T14:28:49.050Z,29.27
2019-03-01T14:30:16.695Z,28.07
2019-03-01T14:31:43.773Z,24.13
2019-03-01T14:33:09.443Z,26.77
2019-03-01T14:34:34.979Z,26.37
2019-03-01T14:36:02.884Z,24.50
2019-03-01T14:37:27.805Z,22.00
2019-03-01T14:38:53.639Z,25.63
2019-03-01T14:40:22.740Z,25.07
2019-03-01T14:41:47.054Z,23.50
2019-03-01T14:43:12.635Z,24.93
2019-03-01T14:44:38.187Z,25.17
2019-03-01T14:46:03.695Z,25.60
2019-03-01T14:47:32.679Z,25.83
2019-03-01T14:48:56.521Z,35.17
2019-03-01T14:50:26.133Z,24.80
2019-03-01T14:51:51.652Z,25.40
2019-03-01T14:53:17.194Z,24.27
2019-03-01T14:54:45.123Z,19.57
2019-03-01T14:56:31.155Z,17.03
2019-03-01T14:58:02.817Z,25.50
2019-03-01T14:59:39.413Z,25.00
2019-03-01T15:01:13.585Z,24.67
2019-03-01T15:02:48.550Z,25.13
2019-03-01T15:04:17.175Z,32.10
2019-03-01T15:05:43.029Z,23.18
2019-03-01T15:07:08.870Z,22.73
2019-03-01T15:08:34.569Z,24.20
2019-03-01T15:10:03.823Z,26.03
2019-03-01T15:11:29.570Z,23.70
2019-03-01T15:12:57.779Z,30.77
2019-03-01T15:14:22.408Z,21.48
2019-03-01T15:15:48.050Z,22.10
2019-03-01T15:17:14.874Z,18.42
2019-03-01T15:18:42.540Z,21.47
2019-03-01T15:20:10.893Z,19.37
2019-03-01T15:21:37.535Z,24.07
2019-03-01T15:23:03.995Z,22.98
2019-03-01T15:24:29.687Z,22.30
2019-03-01T15:25:55.403Z,21.00
2019-03-01T15:27:20.980Z,24.50
2019-03-01T15:28:55.288Z,23.50
2019-03-01T15:30:23.119Z,19.65
2019-03-01T15:31:51.137Z,22.32
2019-03-01T15:33:21.881Z,20.20
2019-03-01T15:34:49.879Z,17.92
2019-03-01T15:36:17.997Z,20.62
2019-03-01T15:37:48.364Z,17.48
2019-03-01T15:39:19.974Z,24.18
2019-03-01T15:40:48.869Z,18.42
2019-03-01T15:42:17.621Z,26.27
2019-03-01T15:43:43.122Z,20.52
2019-03-01T15:45:09.545Z,16.15
2019-03-01T15:46:35.091Z,17.60
2019-03-01T15:48:01.983Z,14.07
2019-03-01T15:49:30.494Z,23.83
2019-03-01T15:50:59.099Z,17.07
2019-03-01T15:52:25.509Z,23.83
2019-03-01T15:53:51.006Z,16.55
2019-03-01T15:55:16.632Z,18.02
2019-03-01T15:56:42.999Z,34.47
2019-03-01T15:58:09.278Z,26.42
2019-03-01T15:59:35.115Z,18.80
2019-03-01T16:01:00.933Z,16.12
2019-03-01T16:02:26.938Z,17.60
2019-03-01T16:03:54.044Z,26.62
2019-03-01T16:05:22.397Z,18.12
2019-03-01T16:06:55.285Z,24.47
2019-03-01T16:08:21.028Z,20.80
2019-03-01T16:09:46.549Z,19.32
2019-03-01T16:11:12.661Z,21.07
2019-03-01T16:12:39.052Z,21.40
2019-03-01T16:14:05.155Z,25.50
2019-03-01T16:15:30.780Z,25.08
2019-03-01T16:16:56.359Z,26.27
2019-03-01T16:18:22.002Z,21.63
2019-03-01T16:19:50.149Z,22.00
2019-03-01T16:21:14.893Z,30.77
2019-03-01T16:22:40.589Z,25.52
2019-03-01T16:24:08.086Z,32.43
2019-03-01T16:25:36.300Z,27.37
2019-03-01T16:27:04.557Z,24.47
2019-03-01T16:28:31.159Z,30.83
2019-03-01T16:29:58.393Z,27.58
2019-03-01T16:31:24.142Z,27.80
2019-03-01T16:32:58.389Z,29.33
2019-03-01T16:34:24.810Z,26.43
2019-03-01T16:35:51.777Z,28.15
2019-03-01T16:37:17.523Z,31.33
2019-03-01T16:38:47.649Z,38.23
2019-03-01T16:40:12.014Z,28.47
2019-03-01T16:41:39.676Z,28.40
2019-03-01T16:43:04.707Z,33.73
2019-03-01T16:44:30.272Z,32.77
2019-03-01T16:45:56.402Z,27.87
2019-03-01T16:47:23.306Z,28.47
2019-03-01T16:48:52.296Z,26.67
2019-03-01T16:50:16.295Z,36.73
2019-03-01T16:51:41.806Z,36.23
2019-03-01T16:53:09.015Z,38.00
2019-03-01T16:54:34.515Z,29.10
2019-03-01T16:56:03.379Z,36.37
2019-03-01T16:57:29.181Z,33.57
2019-03-01T16:58:54.792Z,32.27
2019-03-01T17:00:20.519Z,40.63
2019-03-01T17:01:46.166Z,30.60
2019-03-01T17:03:16.617Z,36.03
2019-03-01T17:04:39.297Z,30.60
2019-03-01T17:06:10.639Z,32.60
2019-03-01T17:07:44.936Z,28.20
2019-03-01T17:09:15.071Z,28.73
2019-03-01T17:10:39.000Z,25.10
2019-03-01T17:12:04.737Z,30.80
2019-03-01T17:13:30.476Z,27.17
2019-03-01T17:14:56.113Z,28.80
2019-03-01T17:16:23.749Z,27.17
2019-03-01T17:17:49.221Z,36.80
2019-03-01T17:19:15.446Z,31.43
2019-03-01T17:20:41.517Z,27.42
2019-03-01T17:22:07.537Z,28.70
2019-03-01T17:23:35.904Z,32.10
2019-03-01T17:25:00.848Z,29.30
2019-03-01T17:26:29.753Z,27.17
2019-03-01T17:27:56.529Z,31.20
2019-03-01T17:29:31.907Z,28.77
2019-03-01T17:31:00.289Z,31.63
2019-03-01T17:32:25.966Z,26.80
2019-03-01T17:33:57.282Z,28.83
2019-03-01T17:35:32.432Z,27.80
2019-03-01T17:36:58.054Z,31.60
2019-03-01T17:38:23.570Z,29.60
2019-03-01T17:39:49.149Z,36.63
2019-03-01T17:41:14.670Z,30.70
2019-03-01T17:42:40.264Z,27.93
2019-03-01T17:44:08.419Z,32.77
2019-03-01T17:45:33.310Z,30.70
2019-03-01T17:46:58.831Z,42.53
2019-03-01T17:48:24.449Z,29.30
2019-03-01T17:49:50.003Z,28.67
2019-03-01T17:51:18.302Z,26.37
2019-03-01T17:52:43.921Z,30.90
2019-03-01T17:54:09.541Z,35.03
2019-03-01T17:55:37.573Z,41.90
2019-03-01T17:57:02.981Z,30.90
2019-03-01T17:58:28.679Z,36.63
2019-03-01T17:59:55.649Z,27.77
2019-03-01T18:01:21.782Z,39.18
2019-03-01T18:02:48.731Z,31.07
2019-03-01T18:04:15.286Z,32.87
2019-03-01T18:05:41.550Z,33.07
2019-03-01T18:07:07.116Z,42.07
2019-03-01T18:08:35.827Z,28.77
2019-03-01T18:09:59.910Z,38.53
2019-03-01T18:11:26.104Z,33.00
2019-03-01T18:12:53.083Z,38.40
2019-03-01T18:14:19.134Z,29.73
2019-03-01T18:15:45.037Z,30.07
2019-03-01T18:17:13.281Z,35.77
2019-03-01T18:18:38.887Z,33.63
2019-03-01T18:20:04.784Z,42.60
2019-03-01T18:21:30.357Z,57.33
2019-03-01T18:22:55.883Z,36.00
2019-03-01T18:24:21.410Z,38.37
2019-03-01T18:25:47.111Z,41.33
2019-03-01T18:27:17.846Z,40.40
2019-03-01T18:28:39.975Z,35.73
2019-03-01T18:30:07.231Z,32.63
2019-03-01T18:31:34.604Z,34.83
2019-03-01T18:33:00.059Z,33.80
2019-03-01T18:34:25.545Z,37.00
2019-03-01T18:35:52.426Z,35.33
2019-03-01T18:37:19.757Z,35.83
2019-03-01T18:38:45.445Z,41.13
2019-03-01T18:40:13.405Z,37.00
2019-03-01T18:41:38.824Z,33.83
2019-03-01T18:43:04.414Z,41.13
2019-03-01T18:44:30.022Z,31.27
2019-03-01T18:45:55.601Z,38.07
2019-03-01T18:47:21.105Z,37.00
2019-03-01T18:48:46.637Z,35.47
2019-03-01T18:50:17.896Z,37.83
2019-03-01T18:51:43.594Z,40.97
2019-03-01T18:53:09.198Z,39.17
2019-03-01T18:54:35.818Z,46.33